»·PEaware :: N717TS KRNO-KSBP

N717TS :: KRNO-KSBP

FLIGHT INFORMATION

Flight Status: Arrived
Operator: Privately registered:
United States
More flights under this callsign
Pilot: Ty S. (2873)
Aircraft: SOCATA TBM-900
(TBM9)
More flights by this aircraft type
Origin: KRNO Reno/Tahoe Intl
United States
Destination: KSBP San Luis Co Regl
United States
More flights between these airports :: More routes between these airports
Route: +SPLTM4 RYANN PRB MQO
File this flight plan on PilotEdge
Remarks:
Altitude:
(Current/Filed)
30,000ft
Speed:
(Current/Filed)
325kts
Departed: 24-Nov-18 09:07 AM
Arrived: 24-Nov-18 10:12 AM
Distance/Time
Traveled:
259nm/1:05
Distance/Time
To Go:
Arrived

Flight Plot

Page will automatically refresh every two minutes.

Flight plan parsing failed; only flown route is shown


Map Options




Map Legend


Flown Route
Filed Route
Departure Airport
Arrival Airport
Navaid (VOR, NDB)
Fix

Horizontal Profiles

Position Reports

Time Latitude Longitude Heading Altitude Ground
Speed
24-Nov-18 08:14 39.505701 -119.765315 90 4418ft 0kts
24-Nov-18 08:15 39.505701 -119.765315 90 4418ft 0kts
24-Nov-18 08:16 39.505701 -119.765315 90 4418ft 0kts
24-Nov-18 08:17 39.505701 -119.765315 90 4418ft 0kts
24-Nov-18 08:18 39.505701 -119.765315 90 4418ft 0kts
24-Nov-18 08:19 39.505701 -119.765315 90 4418ft 0kts
24-Nov-18 08:20 39.505701 -119.765315 90 4418ft 0kts
24-Nov-18 08:21 39.505701 -119.765315 90 4418ft 0kts
24-Nov-18 08:22 39.505701 -119.765315 89 4418ft 0kts
24-Nov-18 08:23 39.505701 -119.765315 89 4418ft 0kts
24-Nov-18 08:24 39.505701 -119.765315 89 4418ft 0kts
24-Nov-18 08:25 39.505701 -119.765315 89 4418ft 0kts
24-Nov-18 08:26 39.505701 -119.765315 89 4418ft 0kts
24-Nov-18 08:27 39.505701 -119.765315 89 4418ft 0kts
24-Nov-18 08:28 39.505701 -119.765315 89 4418ft 0kts
24-Nov-18 08:29 39.505701 -119.765315 89 4418ft 0kts
24-Nov-18 08:30 39.505701 -119.765315 89 4418ft 0kts
24-Nov-18 08:31 39.505701 -119.765315 89 4418ft 0kts
24-Nov-18 08:32 39.505701 -119.765315 89 4418ft 0kts
24-Nov-18 08:33 39.505701 -119.765315 89 4418ft 0kts
24-Nov-18 08:34 39.505701 -119.765315 89 4418ft 0kts
24-Nov-18 08:35 39.505701 -119.765315 89 4418ft 0kts
24-Nov-18 08:36 39.505701 -119.765315 89 4418ft 0kts
24-Nov-18 08:37 39.505701 -119.765315 89 4418ft 0kts
24-Nov-18 08:38 39.505701 -119.765315 89 4418ft 0kts
24-Nov-18 08:39 39.505701 -119.765315 89 4418ft 0kts
24-Nov-18 08:40 39.505701 -119.765315 89 4418ft 0kts
24-Nov-18 08:41 39.505701 -119.765315 89 4418ft 0kts
24-Nov-18 08:42 39.505701 -119.765315 89 4418ft 0kts
24-Nov-18 08:43 39.505701 -119.765315 89 4418ft 0kts
24-Nov-18 08:44 39.505701 -119.765315 89 4418ft 0kts
24-Nov-18 08:45 39.505701 -119.765315 89 4418ft 0kts
24-Nov-18 08:46 39.505701 -119.765315 89 4418ft 0kts
24-Nov-18 08:53 39.505701 -119.765315 89 4418ft 0kts
24-Nov-18 08:54 39.505701 -119.765315 89 4418ft 0kts
24-Nov-18 08:55 39.505701 -119.765315 89 4418ft 0kts
24-Nov-18 08:56 39.505701 -119.765315 89 4418ft 0kts
24-Nov-18 08:57 39.505701 -119.765315 89 4418ft 0kts
24-Nov-18 08:58 39.505701 -119.765315 89 4418ft 0kts
24-Nov-18 08:59 39.505701 -119.765315 89 4418ft 0kts
24-Nov-18 09:00 39.505701 -119.765315 89 4418ft 0kts
24-Nov-18 09:01 39.505685 -119.765170 116 4418ft 5kts
24-Nov-18 09:02 39.504433 -119.765249 256 4418ft 0kts
24-Nov-18 09:03 39.502215 -119.765784 180 4418ft 23kts
24-Nov-18 09:04 39.497733 -119.765798 179 4418ft 9kts
24-Nov-18 09:05 39.493430 -119.765194 178 4418ft 21kts
24-Nov-18 09:06 39.489323 -119.765464 246 4418ft 0kts
24-Nov-18 09:07 39.489323 -119.765464 246 4418ft 0kts
24-Nov-18 09:08 39.489323 -119.765464 246 4418ft 0kts
24-Nov-18 09:09 39.489264 -119.766320 283 4418ft 11kts
24-Nov-18 09:10 39.511340 -119.766152 3 5300ft 126kts
24-Nov-18 09:11 39.517125 -119.718318 100 6777ft 202kts
24-Nov-18 09:12 39.522281 -119.646871 72 8684ft 198kts
24-Nov-18 09:13 39.509554 -119.577767 141 9935ft 209kts
24-Nov-18 09:14 39.466901 -119.531454 144 12154ft 204kts
24-Nov-18 09:15 39.422189 -119.482968 143 14054ft 216kts
24-Nov-18 09:16 39.375503 -119.432412 143 16079ft 225kts
24-Nov-18 09:17 39.326632 -119.379575 143 17952ft 236kts
24-Nov-18 09:18 39.275815 -119.324747 143 19865ft 246kts
24-Nov-18 09:19 39.218427 -119.286693 202 21689ft 226kts
24-Nov-18 09:20 39.158093 -119.309564 208 23416ft 232kts
24-Nov-18 09:21 39.096037 -119.334170 209 25137ft 239kts
24-Nov-18 09:22 39.031219 -119.359856 209 26655ft 250kts
24-Nov-18 09:23 38.963786 -119.386567 207 28264ft 259kts
24-Nov-18 09:24 38.895618 -119.413457 205 29675ft 266kts
24-Nov-18 09:25 38.822101 -119.442396 203 30086ft 302kts
24-Nov-18 09:26 38.738466 -119.475187 203 30075ft 325kts
24-Nov-18 09:27 38.650539 -119.509610 203 30071ft 335kts
24-Nov-18 09:28 38.560928 -119.544615 203 30072ft 339kts
24-Nov-18 09:29 38.470951 -119.579676 203 30077ft 340kts
24-Nov-18 09:30 38.380456 -119.614844 203 30081ft 341kts
24-Nov-18 09:31 38.290025 -119.649897 203 30086ft 341kts
24-Nov-18 09:32 38.206354 -119.682252 202 30097ft 342kts
24-Nov-18 09:33 38.115427 -119.717323 202 30105ft 343kts
24-Nov-18 09:34 38.024368 -119.752350 202 30113ft 343kts
24-Nov-18 09:35 37.932947 -119.787430 202 30130ft 343kts
24-Nov-18 09:36 37.846089 -119.820672 202 30124ft 343kts
24-Nov-18 09:37 37.755175 -119.855381 202 30123ft 342kts
24-Nov-18 09:38 37.664076 -119.890066 202 30122ft 342kts
24-Nov-18 09:39 37.573195 -119.924588 202 30122ft 342kts
24-Nov-18 09:40 37.482163 -119.959074 202 30126ft 343kts
24-Nov-18 09:41 37.391162 -119.993457 202 30129ft 343kts
24-Nov-18 09:42 37.299956 -120.027834 202 30129ft 343kts
24-Nov-18 09:43 37.208895 -120.062072 202 30128ft 343kts
24-Nov-18 09:44 37.117853 -120.096215 202 30130ft 343kts
24-Nov-18 09:45 37.026409 -120.130466 201 30131ft 343kts
24-Nov-18 09:46 36.933918 -120.165004 200 29427ft 362kts
24-Nov-18 09:47 36.842392 -120.199402 200 28059ft 372kts
24-Nov-18 09:48 36.743178 -120.236519 200 26549ft 372kts
24-Nov-18 09:49 36.644962 -120.273068 200 25039ft 367kts
24-Nov-18 09:50 36.548597 -120.308576 199 24118ft 349kts
24-Nov-18 09:51 36.459412 -120.340622 200 24119ft 332kts
24-Nov-18 09:52 36.369623 -120.373624 199 22974ft 346kts
24-Nov-18 09:53 36.276856 -120.407619 199 21495ft 350kts
24-Nov-18 09:54 36.184269 -120.441470 199 19997ft 345kts
24-Nov-18 09:55 36.092947 -120.474781 199 18509ft 342kts
24-Nov-18 09:56 36.003578 -120.507294 199 16844ft 331kts
24-Nov-18 09:57 35.916590 -120.538876 199 15066ft 327kts
24-Nov-18 09:58 35.845945 -120.564460 199 13582ft 319kts
24-Nov-18 09:59 35.762905 -120.594484 199 11842ft 309kts
24-Nov-18 10:00 35.682041 -120.623654 199 10131ft 297kts
24-Nov-18 10:01 35.604456 -120.648636 197 9013ft 278kts
24-Nov-18 10:02 35.536669 -120.670069 197 9017ft 270kts
24-Nov-18 10:03 35.464114 -120.692963 196 9016ft 269kts
24-Nov-18 10:04 35.391852 -120.715722 196 9012ft 269kts
24-Nov-18 10:05 35.319412 -120.738493 196 9010ft 269kts
24-Nov-18 10:06 35.251911 -120.735008 123 7558ft 250kts
24-Nov-18 10:07 35.215081 -120.668962 122 5566ft 227kts
24-Nov-18 10:08 35.181262 -120.607240 122 3987ft 209kts
24-Nov-18 10:09 35.148369 -120.547109 122 4001ft 214kts
24-Nov-18 10:10 35.138407 -120.486886 29 3321ft 199kts
24-Nov-18 10:11 35.172913 -120.518577 302 2984ft 180kts
24-Nov-18 10:12 35.196127 -120.571971 293 2820ft 154kts
24-Nov-18 10:13 35.215192 -120.605740 310 1127ft 91kts
24-Nov-18 10:14 35.230771 -120.629609 307 351ft 87kts
24-Nov-18 10:15 35.239477 -120.644188 2 214ft 9kts
24-Nov-18 10:16 35.238511 -120.641359 124 214ft 16kts
24-Nov-18 10:17 35.238367 -120.638317 0 214ft 4kts
24-Nov-18 10:18 35.238444 -120.638234 216 214ft 0kts
24-Nov-18 10:19 35.238444 -120.638234 216 214ft 0kts
24-Nov-18 10:20 35.238444 -120.638234 216 214ft 0kts
24-Nov-18 10:21 35.238444 -120.638234 216 214ft 0kts
24-Nov-18 10:22 35.238444 -120.638234 216 214ft 0kts
24-Nov-18 10:23 35.238444 -120.638234 216 214ft 0kts
24-Nov-18 10:24 35.238444 -120.638234 216 214ft 0kts
24-Nov-18 10:25 35.238444 -120.638234 216 214ft 0kts
24-Nov-18 10:26 35.238444 -120.638234 216 214ft 0kts
24-Nov-18 10:27 35.238444 -120.638234 216 214ft 0kts

Navigation Log

Ident Type
Flight plan parsing failed, navigation log unavailable